sensor_id;sensor_type;location;lat;lon;timestamp;P1;durP1;ratioP1;P2;durP2;ratioP2
44486;SDS011;30191;50.908;6.962;2022-07-11T00:01:43;2.75;;;1.40;;
44486;SDS011;30191;50.908;6.962;2022-07-11T00:04:09;5.07;;;1.75;;
44486;SDS011;30191;50.908;6.962;2022-07-11T00:06:34;7.45;;;1.80;;
44486;SDS011;30191;50.908;6.962;2022-07-11T00:09:00;3.90;;;1.65;;
44486;SDS011;30191;50.908;6.962;2022-07-11T00:11:26;5.63;;;1.60;;
44486;SDS011;30191;50.908;6.962;2022-07-11T00:13:52;6.28;;;1.63;;
44486;SDS011;30191;50.908;6.962;2022-07-11T00:16:17;3.35;;;1.52;;
44486;SDS011;30191;50.908;6.962;2022-07-11T00:18:43;3.97;;;1.60;;
44486;SDS011;30191;50.908;6.962;2022-07-11T00:21:10;4.47;;;1.80;;
44486;SDS011;30191;50.908;6.962;2022-07-11T00:23:36;5.10;;;1.40;;
44486;SDS011;30191;50.908;6.962;2022-07-11T00:26:02;3.85;;;1.70;;
44486;SDS011;30191;50.908;6.962;2022-07-11T00:28:28;2.60;;;1.20;;
44486;SDS011;30191;50.908;6.962;2022-07-11T00:30:53;8.88;;;1.70;;
44486;SDS011;30191;50.908;6.962;2022-07-11T00:33:19;4.40;;;1.55;;
44486;SDS011;30191;50.908;6.962;2022-07-11T00:35:45;7.32;;;1.77;;
44486;SDS011;30191;50.908;6.962;2022-07-11T00:38:11;4.95;;;1.85;;
44486;SDS011;30191;50.908;6.962;2022-07-11T00:40:37;6.20;;;1.70;;
44486;SDS011;30191;50.908;6.962;2022-07-11T00:43:03;5.90;;;1.70;;
44486;SDS011;30191;50.908;6.962;2022-07-11T00:45:29;3.50;;;1.50;;
44486;SDS011;30191;50.908;6.962;2022-07-11T00:47:54;5.65;;;1.77;;
44486;SDS011;30191;50.908;6.962;2022-07-11T00:50:23;4.18;;;1.92;;
44486;SDS011;30191;50.908;6.962;2022-07-11T00:52:50;5.75;;;1.88;;
44486;SDS011;30191;50.908;6.962;2022-07-11T00:55:16;7.80;;;2.17;;
44486;SDS011;30191;50.908;6.962;2022-07-11T00:57:43;6.65;;;1.95;;
44486;SDS011;30191;50.908;6.962;2022-07-11T01:00:09;6.57;;;1.90;;
44486;SDS011;30191;50.908;6.962;2022-07-11T01:02:36;3.40;;;1.73;;
44486;SDS011;30191;50.908;6.962;2022-07-11T01:05:02;5.97;;;2.00;;
44486;SDS011;30191;50.908;6.962;2022-07-11T01:07:29;8.25;;;2.25;;
44486;SDS011;30191;50.908;6.962;2022-07-11T01:09:55;4.32;;;1.50;;
44486;SDS011;30191;50.908;6.962;2022-07-11T01:12:21;4.43;;;2.00;;
44486;SDS011;30191;50.908;6.962;2022-07-11T01:14:54;4.88;;;1.75;;
44486;SDS011;30191;50.908;6.962;2022-07-11T01:17:21;5.40;;;1.80;;
44486;SDS011;30191;50.908;6.962;2022-07-11T01:19:47;5.03;;;2.25;;
44486;SDS011;30191;50.908;6.962;2022-07-11T01:22:13;5.55;;;2.00;;
44486;SDS011;30191;50.908;6.962;2022-07-11T01:24:40;7.95;;;2.10;;
44486;SDS011;30191;50.908;6.962;2022-07-11T01:27:07;5.18;;;1.75;;
44486;SDS011;30191;50.908;6.962;2022-07-11T01:29:34;6.65;;;2.00;;
44486;SDS011;30191;50.908;6.962;2022-07-11T01:31:59;3.97;;;1.88;;
44486;SDS011;30191;50.908;6.962;2022-07-11T01:34:25;4.78;;;1.92;;
44486;SDS011;30191;50.908;6.962;2022-07-11T01:36:51;4.75;;;2.00;;
44486;SDS011;30191;50.908;6.962;2022-07-11T01:39:17;4.85;;;1.90;;
44486;SDS011;30191;50.908;6.962;2022-07-11T01:41:43;5.15;;;1.80;;
44486;SDS011;30191;50.908;6.962;2022-07-11T01:44:09;4.13;;;2.00;;
44486;SDS011;30191;50.908;6.962;2022-07-11T01:46:35;4.50;;;1.88;;
44486;SDS011;30191;50.908;6.962;2022-07-11T01:49:00;5.35;;;2.00;;
44486;SDS011;30191;50.908;6.962;2022-07-11T01:51:27;4.97;;;2.05;;
44486;SDS011;30191;50.908;6.962;2022-07-11T01:53:54;5.35;;;1.73;;
44486;SDS011;30191;50.908;6.962;2022-07-11T01:56:21;7.43;;;2.00;;
44486;SDS011;30191;50.908;6.962;2022-07-11T01:58:47;5.05;;;1.98;;
44486;SDS011;30191;50.908;6.962;2022-07-11T02:01:14;5.15;;;1.98;;
44486;SDS011;30191;50.908;6.962;2022-07-11T02:03:40;3.33;;;1.98;;
44486;SDS011;30191;50.908;6.962;2022-07-11T02:06:06;5.43;;;2.00;;
44486;SDS011;30191;50.908;6.962;2022-07-11T02:08:32;4.72;;;1.98;;
44486;SDS011;30191;50.908;6.962;2022-07-11T02:10:58;5.40;;;2.50;;
44486;SDS011;30191;50.908;6.962;2022-07-11T02:13:24;5.35;;;1.98;;
44486;SDS011;30191;50.908;6.962;2022-07-11T02:15:49;3.88;;;2.13;;
44486;SDS011;30191;50.908;6.962;2022-07-11T02:18:16;4.95;;;2.17;;
44486;SDS011;30191;50.908;6.962;2022-07-11T02:20:43;4.38;;;2.20;;
44486;SDS011;30191;50.908;6.962;2022-07-11T02:23:11;4.30;;;2.08;;
44486;SDS011;30191;50.908;6.962;2022-07-11T02:25:37;6.28;;;2.33;;
44486;SDS011;30191;50.908;6.962;2022-07-11T02:28:06;3.63;;;2.38;;
44486;SDS011;30191;50.908;6.962;2022-07-11T02:30:33;5.30;;;2.20;;
44486;SDS011;30191;50.908;6.962;2022-07-11T02:33:00;6.18;;;2.38;;
44486;SDS011;30191;50.908;6.962;2022-07-11T02:35:25;4.70;;;2.38;;
44486;SDS011;30191;50.908;6.962;2022-07-11T02:37:51;4.65;;;2.17;;
44486;SDS011;30191;50.908;6.962;2022-07-11T02:40:17;4.10;;;2.22;;
44486;SDS011;30191;50.908;6.962;2022-07-11T02:42:43;5.97;;;2.47;;
44486;SDS011;30191;50.908;6.962;2022-07-11T02:45:09;5.28;;;2.45;;
44486;SDS011;30191;50.908;6.962;2022-07-11T02:47:36;6.10;;;2.65;;
44486;SDS011;30191;50.908;6.962;2022-07-11T02:50:06;6.68;;;2.63;;
44486;SDS011;30191;50.908;6.962;2022-07-11T02:52:32;4.10;;;2.88;;
44486;SDS011;30191;50.908;6.962;2022-07-11T02:54:58;7.03;;;2.53;;
44486;SDS011;30191;50.908;6.962;2022-07-11T02:57:24;4.30;;;2.60;;
44486;SDS011;30191;50.908;6.962;2022-07-11T02:59:50;4.47;;;2.63;;
44486;SDS011;30191;50.908;6.962;2022-07-11T03:02:15;7.22;;;2.55;;
44486;SDS011;30191;50.908;6.962;2022-07-11T03:04:41;5.78;;;2.40;;
44486;SDS011;30191;50.908;6.962;2022-07-11T03:07:07;5.80;;;2.85;;
44486;SDS011;30191;50.908;6.962;2022-07-11T03:09:32;4.05;;;2.60;;
44486;SDS011;30191;50.908;6.962;2022-07-11T03:11:58;7.05;;;2.85;;
44486;SDS011;30191;50.908;6.962;2022-07-11T03:14:24;5.25;;;2.70;;
44486;SDS011;30191;50.908;6.962;2022-07-11T03:16:50;7.38;;;2.88;;
44486;SDS011;30191;50.908;6.962;2022-07-11T03:19:16;6.10;;;2.47;;
44486;SDS011;30191;50.908;6.962;2022-07-11T03:21:41;8.88;;;2.72;;
44486;SDS011;30191;50.908;6.962;2022-07-11T03:24:07;5.75;;;2.92;;
44486;SDS011;30191;50.908;6.962;2022-07-11T03:26:33;7.45;;;3.05;;
44486;SDS011;30191;50.908;6.962;2022-07-11T03:28:58;4.00;;;2.63;;
44486;SDS011;30191;50.908;6.962;2022-07-11T03:31:24;5.13;;;2.80;;
44486;SDS011;30191;50.908;6.962;2022-07-11T03:33:50;5.55;;;2.75;;
44486;SDS011;30191;50.908;6.962;2022-07-11T03:36:15;6.13;;;2.80;;
44486;SDS011;30191;50.908;6.962;2022-07-11T03:38:41;7.88;;;2.97;;
44486;SDS011;30191;50.908;6.962;2022-07-11T03:41:07;4.78;;;3.00;;
44486;SDS011;30191;50.908;6.962;2022-07-11T03:43:32;5.57;;;2.88;;
44486;SDS011;30191;50.908;6.962;2022-07-11T03:45:58;4.72;;;2.53;;
44486;SDS011;30191;50.908;6.962;2022-07-11T03:48:24;5.22;;;3.03;;
44486;SDS011;30191;50.908;6.962;2022-07-11T03:50:49;7.50;;;3.00;;
44486;SDS011;30191;50.908;6.962;2022-07-11T03:53:15;4.95;;;2.90;;
44486;SDS011;30191;50.908;6.962;2022-07-11T03:55:41;9.20;;;3.03;;
44486;SDS011;30191;50.908;6.962;2022-07-11T03:58:07;7.82;;;3.10;;
44486;SDS011;30191;50.908;6.962;2022-07-11T04:00:33;5.88;;;3.22;;
44486;SDS011;30191;50.908;6.962;2022-07-11T04:02:58;6.45;;;2.97;;
44486;SDS011;30191;50.908;6.962;2022-07-11T04:05:25;4.97;;;2.75;;
44486;SDS011;30191;50.908;6.962;2022-07-11T04:07:50;7.90;;;3.20;;
44486;SDS011;30191;50.908;6.962;2022-07-11T04:10:16;7.85;;;3.05;;
44486;SDS011;30191;50.908;6.962;2022-07-11T04:12:42;7.80;;;3.25;;
44486;SDS011;30191;50.908;6.962;2022-07-11T04:15:09;6.70;;;3.00;;
44486;SDS011;30191;50.908;6.962;2022-07-11T04:17:35;5.55;;;3.28;;
44486;SDS011;30191;50.908;6.962;2022-07-11T04:20:02;5.78;;;3.63;;
44486;SDS011;30191;50.908;6.962;2022-07-11T04:22:28;8.43;;;3.30;;
44486;SDS011;30191;50.908;6.962;2022-07-11T04:24:54;6.55;;;3.33;;
44486;SDS011;30191;50.908;6.962;2022-07-11T04:27:20;8.50;;;3.70;;
44486;SDS011;30191;50.908;6.962;2022-07-11T04:29:46;11.73;;;3.40;;
44486;SDS011;30191;50.908;6.962;2022-07-11T04:32:12;7.20;;;3.78;;
44486;SDS011;30191;50.908;6.962;2022-07-11T04:34:37;7.35;;;3.65;;
44486;SDS011;30191;50.908;6.962;2022-07-11T04:37:03;6.30;;;3.20;;
44486;SDS011;30191;50.908;6.962;2022-07-11T04:39:30;6.88;;;3.35;;
44486;SDS011;30191;50.908;6.962;2022-07-11T04:41:57;10.73;;;3.88;;
44486;SDS011;30191;50.908;6.962;2022-07-11T04:44:23;7.80;;;3.72;;
44486;SDS011;30191;50.908;6.962;2022-07-11T04:46:49;6.45;;;3.53;;
44486;SDS011;30191;50.908;6.962;2022-07-11T04:49:16;5.00;;;3.38;;
44486;SDS011;30191;50.908;6.962;2022-07-11T04:51:41;7.43;;;3.38;;
44486;SDS011;30191;50.908;6.962;2022-07-11T04:54:07;6.95;;;3.85;;
44486;SDS011;30191;50.908;6.962;2022-07-11T04:56:34;6.32;;;3.40;;
44486;SDS011;30191;50.908;6.962;2022-07-11T04:58:59;10.13;;;3.90;;
44486;SDS011;30191;50.908;6.962;2022-07-11T05:01:25;6.82;;;3.30;;
44486;SDS011;30191;50.908;6.962;2022-07-11T05:03:54;7.00;;;3.17;;
44486;SDS011;30191;50.908;6.962;2022-07-11T05:06:19;7.55;;;3.63;;
44486;SDS011;30191;50.908;6.962;2022-07-11T05:08:45;6.47;;;3.60;;
44486;SDS011;30191;50.908;6.962;2022-07-11T05:11:11;7.90;;;3.45;;
44486;SDS011;30191;50.908;6.962;2022-07-11T05:13:36;5.40;;;3.20;;
44486;SDS011;30191;50.908;6.962;2022-07-11T05:16:02;7.90;;;3.30;;
44486;SDS011;30191;50.908;6.962;2022-07-11T05:18:28;8.93;;;3.50;;
44486;SDS011;30191;50.908;6.962;2022-07-11T05:20:54;7.10;;;3.45;;
44486;SDS011;30191;50.908;6.962;2022-07-11T05:23:20;8.35;;;3.63;;
44486;SDS011;30191;50.908;6.962;2022-07-11T05:25:46;6.68;;;3.65;;
44486;SDS011;30191;50.908;6.962;2022-07-11T05:28:12;7.78;;;3.85;;
44486;SDS011;30191;50.908;6.962;2022-07-11T05:30:37;7.63;;;3.58;;
44486;SDS011;30191;50.908;6.962;2022-07-11T05:33:03;7.63;;;3.90;;
44486;SDS011;30191;50.908;6.962;2022-07-11T05:35:28;6.72;;;3.90;;
44486;SDS011;30191;50.908;6.962;2022-07-11T05:37:54;6.10;;;3.90;;
44486;SDS011;30191;50.908;6.962;2022-07-11T05:40:20;7.47;;;4.05;;
44486;SDS011;30191;50.908;6.962;2022-07-11T05:42:45;9.48;;;3.92;;
44486;SDS011;30191;50.908;6.962;2022-07-11T05:45:11;11.68;;;3.88;;
44486;SDS011;30191;50.908;6.962;2022-07-11T05:47:37;8.43;;;3.92;;
44486;SDS011;30191;50.908;6.962;2022-07-11T05:50:03;6.60;;;3.90;;
44486;SDS011;30191;50.908;6.962;2022-07-11T05:52:29;6.72;;;3.80;;
44486;SDS011;30191;50.908;6.962;2022-07-11T05:54:55;8.75;;;3.55;;
44486;SDS011;30191;50.908;6.962;2022-07-11T05:57:21;8.48;;;4.55;;
44486;SDS011;30191;50.908;6.962;2022-07-11T05:59:46;7.53;;;3.92;;
44486;SDS011;30191;50.908;6.962;2022-07-11T06:02:12;6.50;;;3.70;;
44486;SDS011;30191;50.908;6.962;2022-07-11T06:04:38;8.93;;;4.00;;
44486;SDS011;30191;50.908;6.962;2022-07-11T06:07:04;11.60;;;3.92;;
44486;SDS011;30191;50.908;6.962;2022-07-11T06:09:30;11.15;;;4.10;;
44486;SDS011;30191;50.908;6.962;2022-07-11T06:11:55;8.55;;;4.05;;
44486;SDS011;30191;50.908;6.962;2022-07-11T06:14:21;6.18;;;3.80;;
44486;SDS011;30191;50.908;6.962;2022-07-11T06:16:48;6.03;;;3.65;;
44486;SDS011;30191;50.908;6.962;2022-07-11T06:19:14;8.05;;;3.78;;
44486;SDS011;30191;50.908;6.962;2022-07-11T06:21:40;8.27;;;3.75;;
44486;SDS011;30191;50.908;6.962;2022-07-11T06:24:06;7.22;;;4.25;;
44486;SDS011;30191;50.908;6.962;2022-07-11T06:26:32;6.38;;;4.32;;
44486;SDS011;30191;50.908;6.962;2022-07-11T06:28:57;7.05;;;4.20;;
44486;SDS011;30191;50.908;6.962;2022-07-11T06:31:23;7.85;;;4.53;;
44486;SDS011;30191;50.908;6.962;2022-07-11T06:33:49;9.00;;;4.32;;
44486;SDS011;30191;50.908;6.962;2022-07-11T06:36:19;7.25;;;4.40;;
44486;SDS011;30191;50.908;6.962;2022-07-11T06:38:51;8.63;;;4.40;;
44486;SDS011;30191;50.908;6.962;2022-07-11T06:41:18;7.03;;;3.80;;
44486;SDS011;30191;50.908;6.962;2022-07-11T06:43:44;9.52;;;4.38;;
44486;SDS011;30191;50.908;6.962;2022-07-11T06:46:13;9.65;;;4.15;;
44486;SDS011;30191;50.908;6.962;2022-07-11T06:48:41;11.43;;;3.72;;
44486;SDS011;30191;50.908;6.962;2022-07-11T06:51:07;6.47;;;3.78;;
44486;SDS011;30191;50.908;6.962;2022-07-11T06:53:34;9.05;;;3.65;;
44486;SDS011;30191;50.908;6.962;2022-07-11T06:56:00;8.70;;;4.47;;
44486;SDS011;30191;50.908;6.962;2022-07-11T06:58:25;9.45;;;5.00;;
44486;SDS011;30191;50.908;6.962;2022-07-11T07:01:00;10.60;;;6.25;;
44486;SDS011;30191;50.908;6.962;2022-07-11T07:03:27;10.73;;;6.43;;
44486;SDS011;30191;50.908;6.962;2022-07-11T07:05:54;12.55;;;6.20;;
44486;SDS011;30191;50.908;6.962;2022-07-11T07:08:21;7.90;;;5.88;;
44486;SDS011;30191;50.908;6.962;2022-07-11T07:10:51;8.55;;;6.38;;
44486;SDS011;30191;50.908;6.962;2022-07-11T07:13:17;10.45;;;6.13;;
44486;SDS011;30191;50.908;6.962;2022-07-11T07:15:43;8.52;;;6.50;;
44486;SDS011;30191;50.908;6.962;2022-07-11T07:18:10;8.77;;;6.85;;
44486;SDS011;30191;50.908;6.962;2022-07-11T07:20:36;7.85;;;6.68;;
44486;SDS011;30191;50.908;6.962;2022-07-11T07:23:02;8.90;;;6.00;;
44486;SDS011;30191;50.908;6.962;2022-07-11T07:25:28;6.82;;;6.10;;
44486;SDS011;30191;50.908;6.962;2022-07-11T07:27:54;7.75;;;6.38;;
44486;SDS011;30191;50.908;6.962;2022-07-11T07:30:19;8.88;;;6.32;;
44486;SDS011;30191;50.908;6.962;2022-07-11T07:32:45;8.20;;;6.03;;
44486;SDS011;30191;50.908;6.962;2022-07-11T07:35:11;8.05;;;6.70;;
44486;SDS011;30191;50.908;6.962;2022-07-11T07:37:36;9.05;;;6.03;;
44486;SDS011;30191;50.908;6.962;2022-07-11T07:40:02;8.35;;;5.80;;
44486;SDS011;30191;50.908;6.962;2022-07-11T07:42:28;6.10;;;5.50;;
44486;SDS011;30191;50.908;6.962;2022-07-11T07:44:54;6.07;;;5.47;;
44486;SDS011;30191;50.908;6.962;2022-07-11T07:47:19;6.55;;;5.38;;
44486;SDS011;30191;50.908;6.962;2022-07-11T07:49:45;8.45;;;5.78;;
44486;SDS011;30191;50.908;6.962;2022-07-11T07:52:11;6.15;;;5.18;;
44486;SDS011;30191;50.908;6.962;2022-07-11T07:54:36;5.57;;;4.80;;
44486;SDS011;30191;50.908;6.962;2022-07-11T07:57:03;6.65;;;5.07;;
44486;SDS011;30191;50.908;6.962;2022-07-11T07:59:29;5.22;;;4.70;;
44486;SDS011;30191;50.908;6.962;2022-07-11T08:01:54;7.15;;;4.93;;
44486;SDS011;30191;50.908;6.962;2022-07-11T08:04:20;5.85;;;5.10;;
44486;SDS011;30191;50.908;6.962;2022-07-11T08:06:46;5.55;;;5.00;;
44486;SDS011;30191;50.908;6.962;2022-07-11T08:09:11;7.07;;;6.20;;
44486;SDS011;30191;50.908;6.962;2022-07-11T08:11:37;9.18;;;6.45;;
44486;SDS011;30191;50.908;6.962;2022-07-11T08:14:03;8.85;;;6.57;;
44486;SDS011;30191;50.908;6.962;2022-07-11T08:16:30;6.90;;;6.28;;
44486;SDS011;30191;50.908;6.962;2022-07-11T08:19:01;11.00;;;7.38;;
44486;SDS011;30191;50.908;6.962;2022-07-11T08:21:31;8.43;;;7.60;;
44486;SDS011;30191;50.908;6.962;2022-07-11T08:23:58;8.27;;;7.35;;
44486;SDS011;30191;50.908;6.962;2022-07-11T08:26:23;10.75;;;7.60;;
44486;SDS011;30191;50.908;6.962;2022-07-11T08:28:49;9.80;;;7.85;;
44486;SDS011;30191;50.908;6.962;2022-07-11T08:31:17;9.60;;;7.50;;
44486;SDS011;30191;50.908;6.962;2022-07-11T08:33:42;8.88;;;6.97;;
44486;SDS011;30191;50.908;6.962;2022-07-11T08:36:08;9.07;;;7.20;;
44486;SDS011;30191;50.908;6.962;2022-07-11T08:38:35;10.48;;;7.15;;
44486;SDS011;30191;50.908;6.962;2022-07-11T08:41:02;10.55;;;7.78;;
44486;SDS011;30191;50.908;6.962;2022-07-11T08:43:29;8.90;;;8.02;;
44486;SDS011;30191;50.908;6.962;2022-07-11T08:45:55;11.77;;;8.85;;
44486;SDS011;30191;50.908;6.962;2022-07-11T08:48:22;10.60;;;9.52;;
44486;SDS011;30191;50.908;6.962;2022-07-11T08:50:49;12.85;;;9.80;;
44486;SDS011;30191;50.908;6.962;2022-07-11T08:53:15;12.75;;;9.90;;
44486;SDS011;30191;50.908;6.962;2022-07-11T08:55:41;11.15;;;9.93;;
44486;SDS011;30191;50.908;6.962;2022-07-11T08:58:07;11.88;;;9.43;;
44486;SDS011;30191;50.908;6.962;2022-07-11T09:00:34;11.57;;;10.40;;
44486;SDS011;30191;50.908;6.962;2022-07-11T09:03:00;12.55;;;10.70;;
44486;SDS011;30191;50.908;6.962;2022-07-11T09:05:28;13.75;;;11.50;;
44486;SDS011;30191;50.908;6.962;2022-07-11T09:07:55;11.45;;;10.35;;
44486;SDS011;30191;50.908;6.962;2022-07-11T09:10:21;15.93;;;12.13;;
44486;SDS011;30191;50.908;6.962;2022-07-11T09:13:03;16.30;;;11.95;;
44486;SDS011;30191;50.908;6.962;2022-07-11T09:20:33;16.08;;;12.52;;
44486;SDS011;30191;50.908;6.962;2022-07-11T09:23:41;14.23;;;12.27;;
44486;SDS011;30191;50.908;6.962;2022-07-11T09:26:32;14.50;;;11.88;;
44486;SDS011;30191;50.908;6.962;2022-07-11T09:29:05;16.23;;;9.75;;
44486;SDS011;30191;50.908;6.962;2022-07-11T09:31:37;12.98;;;9.15;;
44486;SDS011;30191;50.908;6.962;2022-07-11T09:34:11;10.55;;;7.65;;
44486;SDS011;30191;50.908;6.962;2022-07-11T09:39:15;10.45;;;9.18;;
44486;SDS011;30191;50.908;6.962;2022-07-11T09:41:42;9.57;;;7.70;;
44486;SDS011;30191;50.908;6.962;2022-07-11T09:44:30;9.93;;;7.10;;
44486;SDS011;30191;50.908;6.962;2022-07-11T09:46:58;8.60;;;7.70;;
44486;SDS011;30191;50.908;6.962;2022-07-11T09:52:10;8.52;;;6.80;;
44486;SDS011;30191;50.908;6.962;2022-07-11T09:54:56;6.85;;;6.25;;
44486;SDS011;30191;50.908;6.962;2022-07-11T09:57:29;7.38;;;6.20;;
44486;SDS011;30191;50.908;6.962;2022-07-11T10:00:03;8.45;;;7.13;;
44486;SDS011;30191;50.908;6.962;2022-07-11T10:02:30;12.20;;;8.48;;
44486;SDS011;30191;50.908;6.962;2022-07-11T10:04:57;14.57;;;9.98;;
44486;SDS011;30191;50.908;6.962;2022-07-11T10:07:24;12.15;;;10.82;;
44486;SDS011;30191;50.908;6.962;2022-07-11T10:09:50;12.20;;;10.05;;
44486;SDS011;30191;50.908;6.962;2022-07-11T10:12:16;11.90;;;9.73;;
44486;SDS011;30191;50.908;6.962;2022-07-11T10:14:42;10.15;;;9.27;;
44486;SDS011;30191;50.908;6.962;2022-07-11T10:17:15;10.40;;;9.40;;
44486;SDS011;30191;50.908;6.962;2022-07-11T10:22:28;11.50;;;10.40;;
44486;SDS011;30191;50.908;6.962;2022-07-11T10:25:04;11.93;;;10.73;;
44486;SDS011;30191;50.908;6.962;2022-07-11T10:27:36;13.65;;;11.98;;
44486;SDS011;30191;50.908;6.962;2022-07-11T10:30:12;13.85;;;11.70;;
44486;SDS011;30191;50.908;6.962;2022-07-11T10:32:57;11.98;;;10.80;;
44486;SDS011;30191;50.908;6.962;2022-07-11T10:35:23;11.13;;;10.02;;
44486;SDS011;30191;50.908;6.962;2022-07-11T10:37:51;10.63;;;9.70;;
44486;SDS011;30191;50.908;6.962;2022-07-11T10:43:10;11.88;;;9.05;;
44486;SDS011;30191;50.908;6.962;2022-07-11T10:45:59;11.73;;;9.50;;
44486;SDS011;30191;50.908;6.962;2022-07-11T10:48:28;10.30;;;9.50;;
44486;SDS011;30191;50.908;6.962;2022-07-11T10:53:37;13.73;;;10.30;;
44486;SDS011;30191;50.908;6.962;2022-07-11T10:58:59;12.45;;;9.82;;
44486;SDS011;30191;50.908;6.962;2022-07-11T11:04:49;12.43;;;11.23;;
44486;SDS011;30191;50.908;6.962;2022-07-11T11:23:31;12.50;;;11.20;;
44486;SDS011;30191;50.908;6.962;2022-07-11T11:26:11;15.02;;;12.00;;
44486;SDS011;30191;50.908;6.962;2022-07-11T11:31:27;17.08;;;15.50;;
44486;SDS011;30191;50.908;6.962;2022-07-11T11:33:58;16.90;;;15.32;;
44486;SDS011;30191;50.908;6.962;2022-07-11T11:36:26;16.15;;;14.55;;
44486;SDS011;30191;50.908;6.962;2022-07-11T11:38:53;17.50;;;14.50;;
44486;SDS011;30191;50.908;6.962;2022-07-11T11:41:26;15.20;;;13.70;;
44486;SDS011;30191;50.908;6.962;2022-07-11T11:43:55;15.55;;;14.15;;
44486;SDS011;30191;50.908;6.962;2022-07-11T11:46:25;13.65;;;12.55;;
44486;SDS011;30191;50.908;6.962;2022-07-11T11:48:56;14.07;;;12.60;;
44486;SDS011;30191;50.908;6.962;2022-07-11T11:51:29;15.90;;;12.32;;
44486;SDS011;30191;50.908;6.962;2022-07-11T11:53:56;13.20;;;12.00;;
44486;SDS011;30191;50.908;6.962;2022-07-11T11:56:32;12.85;;;11.75;;
44486;SDS011;30191;50.908;6.962;2022-07-11T11:59:02;12.50;;;11.40;;
44486;SDS011;30191;50.908;6.962;2022-07-11T12:04:03;13.02;;;11.75;;
44486;SDS011;30191;50.908;6.962;2022-07-11T12:06:34;12.88;;;11.57;;
44486;SDS011;30191;50.908;6.962;2022-07-11T12:09:02;13.35;;;10.43;;
44486;SDS011;30191;50.908;6.962;2022-07-11T12:11:30;11.77;;;10.70;;
44486;SDS011;30191;50.908;6.962;2022-07-11T12:13:57;12.05;;;9.93;;
44486;SDS011;30191;50.908;6.962;2022-07-11T12:16:24;11.20;;;10.02;;
44486;SDS011;30191;50.908;6.962;2022-07-11T12:19:07;10.48;;;9.48;;
44486;SDS011;30191;50.908;6.962;2022-07-11T12:21:34;11.07;;;9.85;;
44486;SDS011;30191;50.908;6.962;2022-07-11T12:24:04;10.93;;;10.02;;
44486;SDS011;30191;50.908;6.962;2022-07-11T12:26:33;13.68;;;10.68;;
44486;SDS011;30191;50.908;6.962;2022-07-11T12:34:08;11.48;;;10.32;;
44486;SDS011;30191;50.908;6.962;2022-07-11T12:36:33;12.48;;;10.70;;
44486;SDS011;30191;50.908;6.962;2022-07-11T12:38:59;12.00;;;10.02;;
44486;SDS011;30191;50.908;6.962;2022-07-11T12:41:25;13.43;;;10.60;;
44486;SDS011;30191;50.908;6.962;2022-07-11T12:43:53;11.18;;;10.18;;
44486;SDS011;30191;50.908;6.962;2022-07-11T12:46:38;10.95;;;10.02;;
44486;SDS011;30191;50.908;6.962;2022-07-11T12:49:06;10.70;;;9.68;;
44486;SDS011;30191;50.908;6.962;2022-07-11T12:51:36;11.90;;;10.35;;
44486;SDS011;30191;50.908;6.962;2022-07-11T12:54:07;9.98;;;9.07;;
44486;SDS011;30191;50.908;6.962;2022-07-11T12:56:35;10.60;;;9.60;;
44486;SDS011;30191;50.908;6.962;2022-07-11T12:59:02;10.65;;;9.55;;
44486;SDS011;30191;50.908;6.962;2022-07-11T13:01:29;14.18;;;9.73;;
44486;SDS011;30191;50.908;6.962;2022-07-11T13:03:55;10.80;;;9.77;;
44486;SDS011;30191;50.908;6.962;2022-07-11T13:06:21;12.70;;;9.50;;
44486;SDS011;30191;50.908;6.962;2022-07-11T13:09:06;12.38;;;9.15;;
44486;SDS011;30191;50.908;6.962;2022-07-11T13:11:32;12.85;;;9.98;;
44486;SDS011;30191;50.908;6.962;2022-07-11T13:13:57;11.32;;;10.15;;
44486;SDS011;30191;50.908;6.962;2022-07-11T13:16:23;14.35;;;10.00;;
44486;SDS011;30191;50.908;6.962;2022-07-11T13:18:49;10.60;;;9.60;;
44486;SDS011;30191;50.908;6.962;2022-07-11T13:21:15;12.73;;;10.02;;
44486;SDS011;30191;50.908;6.962;2022-07-11T13:23:41;12.27;;;9.80;;
44486;SDS011;30191;50.908;6.962;2022-07-11T13:26:07;13.23;;;10.20;;
44486;SDS011;30191;50.908;6.962;2022-07-11T13:28:34;11.93;;;10.10;;
44486;SDS011;30191;50.908;6.962;2022-07-11T13:31:01;13.90;;;10.02;;
44486;SDS011;30191;50.908;6.962;2022-07-11T13:33:30;12.68;;;10.23;;
44486;SDS011;30191;50.908;6.962;2022-07-11T13:35:56;13.27;;;10.52;;
44486;SDS011;30191;50.908;6.962;2022-07-11T13:38:21;13.43;;;10.15;;
44486;SDS011;30191;50.908;6.962;2022-07-11T13:40:47;12.13;;;10.23;;
44486;SDS011;30191;50.908;6.962;2022-07-11T13:43:13;11.80;;;10.70;;
44486;SDS011;30191;50.908;6.962;2022-07-11T13:45:40;11.45;;;10.35;;
44486;SDS011;30191;50.908;6.962;2022-07-11T13:48:06;13.25;;;10.75;;
44486;SDS011;30191;50.908;6.962;2022-07-11T13:50:32;11.68;;;10.68;;
44486;SDS011;30191;50.908;6.962;2022-07-11T13:52:58;12.25;;;9.90;;
44486;SDS011;30191;50.908;6.962;2022-07-11T13:55:25;11.52;;;10.30;;
44486;SDS011;30191;50.908;6.962;2022-07-11T13:57:54;12.68;;;10.43;;
44486;SDS011;30191;50.908;6.962;2022-07-11T14:00:21;11.25;;;10.25;;
44486;SDS011;30191;50.908;6.962;2022-07-11T14:02:48;14.63;;;10.73;;
44486;SDS011;30191;50.908;6.962;2022-07-11T14:05:14;11.63;;;10.57;;
44486;SDS011;30191;50.908;6.962;2022-07-11T14:07:41;12.32;;;10.27;;
44486;SDS011;30191;50.908;6.962;2022-07-11T14:10:07;11.18;;;10.10;;
44486;SDS011;30191;50.908;6.962;2022-07-11T14:12:34;11.00;;;9.43;;
44486;SDS011;30191;50.908;6.962;2022-07-11T14:15:00;10.95;;;9.63;;
44486;SDS011;30191;50.908;6.962;2022-07-11T14:17:26;11.32;;;10.25;;
44486;SDS011;30191;50.908;6.962;2022-07-11T14:19:52;11.48;;;10.35;;
44486;SDS011;30191;50.908;6.962;2022-07-11T14:22:19;10.40;;;9.40;;
44486;SDS011;30191;50.908;6.962;2022-07-11T14:24:45;11.20;;;9.60;;
44486;SDS011;30191;50.908;6.962;2022-07-11T14:27:10;11.82;;;9.10;;
44486;SDS011;30191;50.908;6.962;2022-07-11T14:29:38;10.55;;;8.52;;
44486;SDS011;30191;50.908;6.962;2022-07-11T14:32:06;10.27;;;9.27;;
44486;SDS011;30191;50.908;6.962;2022-07-11T14:34:32;10.40;;;9.35;;
44486;SDS011;30191;50.908;6.962;2022-07-11T14:36:57;14.38;;;10.27;;
44486;SDS011;30191;50.908;6.962;2022-07-11T14:39:23;9.57;;;8.63;;
44486;SDS011;30191;50.908;6.962;2022-07-11T14:41:49;10.32;;;8.52;;
44486;SDS011;30191;50.908;6.962;2022-07-11T14:44:15;9.38;;;8.15;;
44486;SDS011;30191;50.908;6.962;2022-07-11T14:46:41;10.23;;;8.45;;
44486;SDS011;30191;50.908;6.962;2022-07-11T14:49:07;10.43;;;9.32;;
44486;SDS011;30191;50.908;6.962;2022-07-11T14:51:33;9.63;;;8.63;;
44486;SDS011;30191;50.908;6.962;2022-07-11T14:54:00;8.35;;;7.65;;
44486;SDS011;30191;50.908;6.962;2022-07-11T14:56:26;8.32;;;7.63;;
44486;SDS011;30191;50.908;6.962;2022-07-11T14:58:52;8.07;;;7.35;;
44486;SDS011;30191;50.908;6.962;2022-07-11T15:01:18;7.97;;;7.20;;
44486;SDS011;30191;50.908;6.962;2022-07-11T15:03:43;9.13;;;8.10;;
44486;SDS011;30191;50.908;6.962;2022-07-11T15:06:10;8.23;;;7.50;;
44486;SDS011;30191;50.908;6.962;2022-07-11T15:08:37;8.40;;;7.72;;
44486;SDS011;30191;50.908;6.962;2022-07-11T15:11:22;9.57;;;8.60;;
44486;SDS011;30191;50.908;6.962;2022-07-11T15:14:06;8.75;;;7.88;;
44486;SDS011;30191;50.908;6.962;2022-07-11T15:16:32;8.43;;;7.82;;
44486;SDS011;30191;50.908;6.962;2022-07-11T15:19:02;7.95;;;7.28;;
44486;SDS011;30191;50.908;6.962;2022-07-11T15:23:55;7.95;;;7.30;;
44486;SDS011;30191;50.908;6.962;2022-07-11T15:26:21;7.85;;;7.25;;
44486;SDS011;30191;50.908;6.962;2022-07-11T15:28:48;7.35;;;6.65;;
44486;SDS011;30191;50.908;6.962;2022-07-11T15:31:14;10.73;;;8.35;;
44486;SDS011;30191;50.908;6.962;2022-07-11T15:33:40;8.18;;;7.35;;
44486;SDS011;30191;50.908;6.962;2022-07-11T15:36:10;12.90;;;9.43;;